Clarkston, Washington
Current Conditions -  °F | °C
As of 11:56 AM on Friday 28 Nov 2014 (Local Time) from KLWS Reporting Station
Light Rain Light Rain  
Wind Chill: 59°   Ceiling: 10000
Heat Index: 59°   Visibility: 10mi
Dew Point: 39°   Wind: 23mph
Humidity: 48%   Direction: 210°SSW
Pressure: 29.51"   Gusts: 40mph
Location:  46.41°N, 117.04°W
Report Text: KLWS 281956Z 21020G35KT 10SM -RA OVC100 15/04 A2951 RMK AO2 PK WND 22036/1910 RAB02 SLP991 P0000 T01500039
Loading
Personal Weather Stations






























Interactive Weather Map New forecast layout! Learn more

10-Day Weather Forecast

Advertisements
Track Severe Weather on mobile